sensor_id;sensor_type;location;lat;lon;timestamp;temperature;humidity
75372;HTU21D;63956;52.006;5.878;2023-05-10T00:01:22;14.86;77.67
75372;HTU21D;63956;52.006;5.878;2023-05-10T00:03:51;14.86;77.65
75372;HTU21D;63956;52.006;5.878;2023-05-10T00:06:23;14.87;77.68
75372;HTU21D;63956;52.006;5.878;2023-05-10T00:08:52;14.87;77.66
75372;HTU21D;63956;52.006;5.878;2023-05-10T00:11:22;14.87;77.65
75372;HTU21D;63956;52.006;5.878;2023-05-10T00:13:51;14.87;77.69
75372;HTU21D;63956;52.006;5.878;2023-05-10T00:16:20;14.85;77.72
75372;HTU21D;63956;52.006;5.878;2023-05-10T00:18:49;14.86;77.77
75372;HTU21D;63956;52.006;5.878;2023-05-10T00:21:18;14.85;77.77
75372;HTU21D;63956;52.006;5.878;2023-05-10T00:23:50;14.85;77.79
75372;HTU21D;63956;52.006;5.878;2023-05-10T00:26:19;14.86;77.79
75372;HTU21D;63956;52.006;5.878;2023-05-10T00:28:52;14.87;77.80
75372;HTU21D;63956;52.006;5.878;2023-05-10T00:31:21;14.88;77.79
75372;HTU21D;63956;52.006;5.878;2023-05-10T00:33:50;14.88;77.80
75372;HTU21D;63956;52.006;5.878;2023-05-10T00:36:20;14.89;77.81
75372;HTU21D;63956;52.006;5.878;2023-05-10T00:38:52;14.88;77.82
75372;HTU21D;63956;52.006;5.878;2023-05-10T00:41:21;14.92;77.82
75372;HTU21D;63956;52.006;5.878;2023-05-10T00:43:50;14.91;77.82
75372;HTU21D;63956;52.006;5.878;2023-05-10T00:46:19;14.93;77.80
75372;HTU21D;63956;52.006;5.878;2023-05-10T00:48:49;14.92;77.82
75372;HTU21D;63956;52.006;5.878;2023-05-10T00:51:19;14.92;77.85
75372;HTU21D;63956;52.006;5.878;2023-05-10T00:53:52;14.91;77.87
75372;HTU21D;63956;52.006;5.878;2023-05-10T00:56:22;14.93;77.87
75372;HTU21D;63956;52.006;5.878;2023-05-10T00:58:51;14.94;77.82
75372;HTU21D;63956;52.006;5.878;2023-05-10T01:01:21;14.95;77.85
75372;HTU21D;63956;52.006;5.878;2023-05-10T01:03:51;14.95;77.86
75372;HTU21D;63956;52.006;5.878;2023-05-10T01:06:21;14.94;77.83
75372;HTU21D;63956;52.006;5.878;2023-05-10T01:08:54;14.96;77.86
75372;HTU21D;63956;52.006;5.878;2023-05-10T01:11:23;14.96;77.88
75372;HTU21D;63956;52.006;5.878;2023-05-10T01:13:56;14.96;77.89
75372;HTU21D;63956;52.006;5.878;2023-05-10T01:16:26;14.98;77.87
75372;HTU21D;63956;52.006;5.878;2023-05-10T01:18:56;14.97;77.89
75372;HTU21D;63956;52.006;5.878;2023-05-10T01:21:30;14.98;77.89
75372;HTU21D;63956;52.006;5.878;2023-05-10T01:27:23;15.00;77.79
75372;HTU21D;63956;52.006;5.878;2023-05-10T01:33:09;14.97;77.77
75372;HTU21D;63956;52.006;5.878;2023-05-10T01:35:43;14.97;77.86
75372;HTU21D;63956;52.006;5.878;2023-05-10T01:38:18;14.96;77.92
75372;HTU21D;63956;52.006;5.878;2023-05-10T01:40:52;14.97;77.96
75372;HTU21D;63956;52.006;5.878;2023-05-10T01:43:30;14.98;77.97
75372;HTU21D;63956;52.006;5.878;2023-05-10T01:46:03;14.99;77.96
75372;HTU21D;63956;52.006;5.878;2023-05-10T01:48:43;15.00;77.98
75372;HTU21D;63956;52.006;5.878;2023-05-10T01:51:21;15.00;78.00
75372;HTU21D;63956;52.006;5.878;2023-05-10T01:53:58;15.02;78.01
75372;HTU21D;63956;52.006;5.878;2023-05-10T01:56:31;15.02;78.05
75372;HTU21D;63956;52.006;5.878;2023-05-10T01:59:07;15.02;78.00
75372;HTU21D;63956;52.006;5.878;2023-05-10T02:01:38;15.03;78.04
75372;HTU21D;63956;52.006;5.878;2023-05-10T02:04:11;15.04;78.02
75372;HTU21D;63956;52.006;5.878;2023-05-10T02:06:42;15.06;78.06
75372;HTU21D;63956;52.006;5.878;2023-05-10T02:09:13;15.06;78.04
75372;HTU21D;63956;52.006;5.878;2023-05-10T02:11:43;15.07;78.05
75372;HTU21D;63956;52.006;5.878;2023-05-10T02:14:16;15.08;78.01
75372;HTU21D;63956;52.006;5.878;2023-05-10T02:16:46;15.09;78.01
75372;HTU21D;63956;52.006;5.878;2023-05-10T02:19:20;15.10;78.01
75372;HTU21D;63956;52.006;5.878;2023-05-10T02:21:51;15.12;77.98
75372;HTU21D;63956;52.006;5.878;2023-05-10T02:24:21;15.12;77.98
75372;HTU21D;63956;52.006;5.878;2023-05-10T02:26:53;15.12;77.97
75372;HTU21D;63956;52.006;5.878;2023-05-10T02:29:23;15.11;78.01
75372;HTU21D;63956;52.006;5.878;2023-05-10T02:31:54;15.10;78.03
75372;HTU21D;63956;52.006;5.878;2023-05-10T02:34:28;15.13;78.01
75372;HTU21D;63956;52.006;5.878;2023-05-10T02:36:59;15.11;78.07
75372;HTU21D;63956;52.006;5.878;2023-05-10T02:39:32;15.13;78.05
75372;HTU21D;63956;52.006;5.878;2023-05-10T02:42:03;15.12;78.00
75372;HTU21D;63956;52.006;5.878;2023-05-10T02:44:34;15.12;78.03
75372;HTU21D;63956;52.006;5.878;2023-05-10T02:47:04;15.12;78.02
75372;HTU21D;63956;52.006;5.878;2023-05-10T02:49:36;15.12;78.05
75372;HTU21D;63956;52.006;5.878;2023-05-10T02:52:06;15.12;78.04
75372;HTU21D;63956;52.006;5.878;2023-05-10T02:54:41;15.11;78.04
75372;HTU21D;63956;52.006;5.878;2023-05-10T02:57:16;15.09;78.05
75372;HTU21D;63956;52.006;5.878;2023-05-10T02:59:45;15.08;78.07
75372;HTU21D;63956;52.006;5.878;2023-05-10T03:02:14;15.09;77.99
75372;HTU21D;63956;52.006;5.878;2023-05-10T03:04:46;15.08;77.97
75372;HTU21D;63956;52.006;5.878;2023-05-10T03:07:15;15.09;77.99
75372;HTU21D;63956;52.006;5.878;2023-05-10T03:09:48;15.07;77.95
75372;HTU21D;63956;52.006;5.878;2023-05-10T03:12:25;15.07;77.95
75372;HTU21D;63956;52.006;5.878;2023-05-10T03:15:02;15.06;77.95
75372;HTU21D;63956;52.006;5.878;2023-05-10T03:17:42;15.03;77.96
75372;HTU21D;63956;52.006;5.878;2023-05-10T03:20:22;15.02;78.01
75372;HTU21D;63956;52.006;5.878;2023-05-10T03:22:55;14.99;78.02
75372;HTU21D;63956;52.006;5.878;2023-05-10T03:25:26;15.00;78.02
75372;HTU21D;63956;52.006;5.878;2023-05-10T03:27:57;15.00;77.97
75372;HTU21D;63956;52.006;5.878;2023-05-10T03:30:27;15.00;77.91
75372;HTU21D;63956;52.006;5.878;2023-05-10T03:32:57;14.97;77.99
75372;HTU21D;63956;52.006;5.878;2023-05-10T03:35:29;14.96;77.84
75372;HTU21D;63956;52.006;5.878;2023-05-10T03:37:58;14.92;77.88
75372;HTU21D;63956;52.006;5.878;2023-05-10T03:40:28;14.87;77.98
75372;HTU21D;63956;52.006;5.878;2023-05-10T03:42:59;14.85;77.98
75372;HTU21D;63956;52.006;5.878;2023-05-10T03:45:28;14.82;77.92
75372;HTU21D;63956;52.006;5.878;2023-05-10T03:47:57;14.82;77.92
75372;HTU21D;63956;52.006;5.878;2023-05-10T03:50:30;14.81;77.88
75372;HTU21D;63956;52.006;5.878;2023-05-10T03:52:59;14.75;77.95
75372;HTU21D;63956;52.006;5.878;2023-05-10T03:55:28;14.72;78.00
75372;HTU21D;63956;52.006;5.878;2023-05-10T03:58:00;14.70;77.97
75372;HTU21D;63956;52.006;5.878;2023-05-10T04:00:30;14.68;77.95
75372;HTU21D;63956;52.006;5.878;2023-05-10T04:03:00;14.66;78.01
75372;HTU21D;63956;52.006;5.878;2023-05-10T04:05:31;14.67;77.98
75372;HTU21D;63956;52.006;5.878;2023-05-10T04:08:00;14.65;77.97
75372;HTU21D;63956;52.006;5.878;2023-05-10T04:10:30;14.66;77.98
75372;HTU21D;63956;52.006;5.878;2023-05-10T04:12:59;14.65;77.98
75372;HTU21D;63956;52.006;5.878;2023-05-10T04:15:29;14.66;77.95
75372;HTU21D;63956;52.006;5.878;2023-05-10T04:17:58;14.67;77.89
75372;HTU21D;63956;52.006;5.878;2023-05-10T04:20:27;14.65;77.89
75372;HTU21D;63956;52.006;5.878;2023-05-10T04:22:59;14.65;77.92
75372;HTU21D;63956;52.006;5.878;2023-05-10T04:25:28;14.62;77.96
75372;HTU21D;63956;52.006;5.878;2023-05-10T04:27:57;14.64;77.90
75372;HTU21D;63956;52.006;5.878;2023-05-10T04:30:26;14.63;77.93
75372;HTU21D;63956;52.006;5.878;2023-05-10T04:32:56;14.64;77.95
75372;HTU21D;63956;52.006;5.878;2023-05-10T04:35:25;14.63;77.91
75372;HTU21D;63956;52.006;5.878;2023-05-10T04:37:54;14.60;77.93
75372;HTU21D;63956;52.006;5.878;2023-05-10T04:40:26;14.59;78.00
75372;HTU21D;63956;52.006;5.878;2023-05-10T04:42:55;14.60;77.98
75372;HTU21D;63956;52.006;5.878;2023-05-10T04:45:24;14.63;77.92
75372;HTU21D;63956;52.006;5.878;2023-05-10T04:47:53;14.62;77.89
75372;HTU21D;63956;52.006;5.878;2023-05-10T04:50:22;14.60;77.87
75372;HTU21D;63956;52.006;5.878;2023-05-10T04:52:51;14.57;77.89
75372;HTU21D;63956;52.006;5.878;2023-05-10T04:55:20;14.57;77.89
75372;HTU21D;63956;52.006;5.878;2023-05-10T04:57:52;14.55;77.97
75372;HTU21D;63956;52.006;5.878;2023-05-10T05:00:23;14.54;77.89
75372;HTU21D;63956;52.006;5.878;2023-05-10T05:02:52;14.51;77.89
75372;HTU21D;63956;52.006;5.878;2023-05-10T05:05:21;14.50;78.00
75372;HTU21D;63956;52.006;5.878;2023-05-10T05:07:50;14.48;78.01
75372;HTU21D;63956;52.006;5.878;2023-05-10T05:10:20;14.48;77.99
75372;HTU21D;63956;52.006;5.878;2023-05-10T05:12:51;14.51;77.97
75372;HTU21D;63956;52.006;5.878;2023-05-10T05:15:21;14.51;77.95
75372;HTU21D;63956;52.006;5.878;2023-05-10T05:17:50;14.51;77.91
75372;HTU21D;63956;52.006;5.878;2023-05-10T05:20:19;14.50;77.89
75372;HTU21D;63956;52.006;5.878;2023-05-10T05:22:48;14.53;77.89
75372;HTU21D;63956;52.006;5.878;2023-05-10T05:25:17;14.52;77.85
75372;HTU21D;63956;52.006;5.878;2023-05-10T05:27:46;14.51;77.90
75372;HTU21D;63956;52.006;5.878;2023-05-10T05:30:18;14.52;77.87
75372;HTU21D;63956;52.006;5.878;2023-05-10T05:32:48;14.51;77.95
75372;HTU21D;63956;52.006;5.878;2023-05-10T05:35:17;14.49;77.98
75372;HTU21D;63956;52.006;5.878;2023-05-10T05:37:46;14.49;78.03
75372;HTU21D;63956;52.006;5.878;2023-05-10T05:40:15;14.50;78.02
75372;HTU21D;63956;52.006;5.878;2023-05-10T05:42:45;14.51;78.00
75372;HTU21D;63956;52.006;5.878;2023-05-10T05:45:14;14.52;78.01
75372;HTU21D;63956;52.006;5.878;2023-05-10T05:47:45;14.52;78.01
75372;HTU21D;63956;52.006;5.878;2023-05-10T05:50:15;14.54;77.98
75372;HTU21D;63956;52.006;5.878;2023-05-10T05:52:44;14.54;78.03
75372;HTU21D;63956;52.006;5.878;2023-05-10T05:55:13;14.56;78.06
75372;HTU21D;63956;52.006;5.878;2023-05-10T05:57:42;14.58;78.05
75372;HTU21D;63956;52.006;5.878;2023-05-10T06:00:13;14.57;78.05
75372;HTU21D;63956;52.006;5.878;2023-05-10T06:02:44;14.58;78.09
75372;HTU21D;63956;52.006;5.878;2023-05-10T06:05:14;14.59;78.06
75372;HTU21D;63956;52.006;5.878;2023-05-10T06:07:43;14.59;78.04
75372;HTU21D;63956;52.006;5.878;2023-05-10T06:10:12;14.59;78.08
75372;HTU21D;63956;52.006;5.878;2023-05-10T06:12:41;14.64;78.02
75372;HTU21D;63956;52.006;5.878;2023-05-10T06:15:11;14.65;77.98
75372;HTU21D;63956;52.006;5.878;2023-05-10T06:17:40;14.63;78.02
75372;HTU21D;63956;52.006;5.878;2023-05-10T06:20:13;14.60;78.11
75372;HTU21D;63956;52.006;5.878;2023-05-10T06:22:42;14.59;78.15
75372;HTU21D;63956;52.006;5.878;2023-05-10T06:25:12;14.59;78.16
75372;HTU21D;63956;52.006;5.878;2023-05-10T06:27:44;14.59;78.14
75372;HTU21D;63956;52.006;5.878;2023-05-10T06:30:13;14.59;78.20
75372;HTU21D;63956;52.006;5.878;2023-05-10T06:32:42;14.58;78.20
75372;HTU21D;63956;52.006;5.878;2023-05-10T06:35:15;14.58;78.20
75372;HTU21D;63956;52.006;5.878;2023-05-10T06:37:44;14.59;78.24
75372;HTU21D;63956;52.006;5.878;2023-05-10T06:40:13;14.58;78.23
75372;HTU21D;63956;52.006;5.878;2023-05-10T06:42:43;14.60;78.24
75372;HTU21D;63956;52.006;5.878;2023-05-10T06:45:13;14.60;78.18
75372;HTU21D;63956;52.006;5.878;2023-05-10T06:47:43;14.58;78.26
75372;HTU21D;63956;52.006;5.878;2023-05-10T06:50:15;14.59;78.29
75372;HTU21D;63956;52.006;5.878;2023-05-10T06:52:44;14.59;78.30
75372;HTU21D;63956;52.006;5.878;2023-05-10T06:55:13;14.63;78.27
75372;HTU21D;63956;52.006;5.878;2023-05-10T06:57:42;14.64;78.27
75372;HTU21D;63956;52.006;5.878;2023-05-10T07:00:12;14.66;78.18
75372;HTU21D;63956;52.006;5.878;2023-05-10T07:02:41;14.68;78.16
75372;HTU21D;63956;52.006;5.878;2023-05-10T07:05:10;14.71;78.11
75372;HTU21D;63956;52.006;5.878;2023-05-10T07:07:42;14.72;78.12
75372;HTU21D;63956;52.006;5.878;2023-05-10T07:10:12;14.74;78.09
75372;HTU21D;63956;52.006;5.878;2023-05-10T07:12:41;14.77;78.11
75372;HTU21D;63956;52.006;5.878;2023-05-10T07:15:10;14.79;78.13
75372;HTU21D;63956;52.006;5.878;2023-05-10T07:17:39;14.80;78.11
75372;HTU21D;63956;52.006;5.878;2023-05-10T07:20:09;14.81;78.11
75372;HTU21D;63956;52.006;5.878;2023-05-10T07:22:38;14.81;78.14
75372;HTU21D;63956;52.006;5.878;2023-05-10T07:25:10;14.82;78.12
75372;HTU21D;63956;52.006;5.878;2023-05-10T07:27:39;14.81;78.14
75372;HTU21D;63956;52.006;5.878;2023-05-10T07:30:09;14.82;78.25
75372;HTU21D;63956;52.006;5.878;2023-05-10T07:32:39;14.84;78.24
75372;HTU21D;63956;52.006;5.878;2023-05-10T07:35:08;14.87;78.18
75372;HTU21D;63956;52.006;5.878;2023-05-10T07:37:37;14.87;78.22
75372;HTU21D;63956;52.006;5.878;2023-05-10T07:40:11;14.88;78.23
75372;HTU21D;63956;52.006;5.878;2023-05-10T07:42:40;14.91;78.16
75372;HTU21D;63956;52.006;5.878;2023-05-10T07:45:09;14.91;78.14
75372;HTU21D;63956;52.006;5.878;2023-05-10T07:47:39;14.89;78.18
75372;HTU21D;63956;52.006;5.878;2023-05-10T07:50:08;14.94;78.22
75372;HTU21D;63956;52.006;5.878;2023-05-10T07:52:37;14.95;78.21
75372;HTU21D;63956;52.006;5.878;2023-05-10T07:55:10;14.97;78.18
75372;HTU21D;63956;52.006;5.878;2023-05-10T07:57:39;14.96;78.18
75372;HTU21D;63956;52.006;5.878;2023-05-10T08:00:12;14.98;78.19
75372;HTU21D;63956;52.006;5.878;2023-05-10T08:02:42;15.00;78.13
75372;HTU21D;63956;52.006;5.878;2023-05-10T08:05:11;15.00;78.07
75372;HTU21D;63956;52.006;5.878;2023-05-10T08:07:40;14.98;78.17
75372;HTU21D;63956;52.006;5.878;2023-05-10T08:10:12;15.00;78.16
75372;HTU21D;63956;52.006;5.878;2023-05-10T08:12:41;14.98;78.14
75372;HTU21D;63956;52.006;5.878;2023-05-10T08:15:10;14.97;78.14
75372;HTU21D;63956;52.006;5.878;2023-05-10T08:17:39;14.97;78.15
75372;HTU21D;63956;52.006;5.878;2023-05-10T08:20:09;14.98;78.08
75372;HTU21D;63956;52.006;5.878;2023-05-10T08:22:38;14.96;78.05
75372;HTU21D;63956;52.006;5.878;2023-05-10T08:25:08;14.95;78.12
75372;HTU21D;63956;52.006;5.878;2023-05-10T08:27:40;14.99;78.08
75372;HTU21D;63956;52.006;5.878;2023-05-10T08:30:09;15.00;78.05
75372;HTU21D;63956;52.006;5.878;2023-05-10T08:32:39;15.02;78.04
75372;HTU21D;63956;52.006;5.878;2023-05-10T08:35:08;15.06;77.99
75372;HTU21D;63956;52.006;5.878;2023-05-10T08:37:37;15.07;78.00
75372;HTU21D;63956;52.006;5.878;2023-05-10T08:40:08;15.09;77.95
75372;HTU21D;63956;52.006;5.878;2023-05-10T08:42:48;15.04;77.94
75372;HTU21D;63956;52.006;5.878;2023-05-10T08:45:21;15.03;77.98
75372;HTU21D;63956;52.006;5.878;2023-05-10T08:47:52;15.02;77.99
75372;HTU21D;63956;52.006;5.878;2023-05-10T08:50:22;15.02;77.83
75372;HTU21D;63956;52.006;5.878;2023-05-10T08:52:53;15.00;77.82
75372;HTU21D;63956;52.006;5.878;2023-05-10T08:55:24;14.98;77.87
75372;HTU21D;63956;52.006;5.878;2023-05-10T08:57:56;14.94;77.91
75372;HTU21D;63956;52.006;5.878;2023-05-10T09:00:26;14.94;77.91
75372;HTU21D;63956;52.006;5.878;2023-05-10T09:02:55;14.89;77.91
75372;HTU21D;63956;52.006;5.878;2023-05-10T09:05:25;14.86;77.65
75372;HTU21D;63956;52.006;5.878;2023-05-10T09:07:55;14.82;77.77
75372;HTU21D;63956;52.006;5.878;2023-05-10T09:10:25;14.78;77.80
75372;HTU21D;63956;52.006;5.878;2023-05-10T09:12:58;14.78;77.87
75372;HTU21D;63956;52.006;5.878;2023-05-10T09:15:27;14.80;77.84
75372;HTU21D;63956;52.006;5.878;2023-05-10T09:17:57;14.80;77.64
75372;HTU21D;63956;52.006;5.878;2023-05-10T09:20:28;14.78;77.69
75372;HTU21D;63956;52.006;5.878;2023-05-10T09:22:57;14.81;77.72
75372;HTU21D;63956;52.006;5.878;2023-05-10T09:25:26;14.81;77.72
75372;HTU21D;63956;52.006;5.878;2023-05-10T09:27:58;14.83;77.61
75372;HTU21D;63956;52.006;5.878;2023-05-10T09:30:29;14.84;77.59
75372;HTU21D;63956;52.006;5.878;2023-05-10T09:32:59;14.86;77.63
75372;HTU21D;63956;52.006;5.878;2023-05-10T09:35:30;14.86;77.66
75372;HTU21D;63956;52.006;5.878;2023-05-10T09:38:01;14.88;77.34
75372;HTU21D;63956;52.006;5.878;2023-05-10T09:40:31;14.91;77.40
75372;HTU21D;63956;52.006;5.878;2023-05-10T09:43:06;14.88;77.38
75372;HTU21D;63956;52.006;5.878;2023-05-10T09:45:36;14.85;77.42
75372;HTU21D;63956;52.006;5.878;2023-05-10T09:48:06;14.83;77.49
75372;HTU21D;63956;52.006;5.878;2023-05-10T09:50:35;14.82;77.44
75372;HTU21D;63956;52.006;5.878;2023-05-10T09:53:04;14.81;77.31
75372;HTU21D;63956;52.006;5.878;2023-05-10T09:55:42;14.82;77.27
75372;HTU21D;63956;52.006;5.878;2023-05-10T09:58:15;14.82;77.21
75372;HTU21D;63956;52.006;5.878;2023-05-10T10:00:45;14.81;77.34
75372;HTU21D;63956;52.006;5.878;2023-05-10T10:03:19;14.82;77.37
75372;HTU21D;63956;52.006;5.878;2023-05-10T10:05:50;14.83;77.36
75372;HTU21D;63956;52.006;5.878;2023-05-10T10:08:22;14.86;77.37
75372;HTU21D;63956;52.006;5.878;2023-05-10T10:10:51;14.85;77.13
75372;HTU21D;63956;52.006;5.878;2023-05-10T10:13:23;14.84;77.23
75372;HTU21D;63956;52.006;5.878;2023-05-10T10:15:52;14.84;77.33
75372;HTU21D;63956;52.006;5.878;2023-05-10T10:18:23;14.85;77.39
75372;HTU21D;63956;52.006;5.878;2023-05-10T10:20:54;14.86;77.34
75372;HTU21D;63956;52.006;5.878;2023-05-10T10:23:24;14.87;77.34
75372;HTU21D;63956;52.006;5.878;2023-05-10T10:25:54;14.88;77.27
75372;HTU21D;63956;52.006;5.878;2023-05-10T10:28:35;14.87;77.29
75372;HTU21D;63956;52.006;5.878;2023-05-10T10:31:17;14.87;77.40
75372;HTU21D;63956;52.006;5.878;2023-05-10T10:34:00;14.92;77.30
75372;HTU21D;63956;52.006;5.878;2023-05-10T10:36:30;14.94;77.28
75372;HTU21D;63956;52.006;5.878;2023-05-10T10:39:01;14.99;77.31
75372;HTU21D;63956;52.006;5.878;2023-05-10T10:41:32;15.00;77.37
75372;HTU21D;63956;52.006;5.878;2023-05-10T10:44:33;15.06;77.27
75372;HTU21D;63956;52.006;5.878;2023-05-10T10:47:05;15.08;77.26
75372;HTU21D;63956;52.006;5.878;2023-05-10T10:49:42;15.11;77.30
75372;HTU21D;63956;52.006;5.878;2023-05-10T10:52:20;15.15;77.27
75372;HTU21D;63956;52.006;5.878;2023-05-10T10:54:53;15.17;77.26
75372;HTU21D;63956;52.006;5.878;2023-05-10T10:57:26;15.21;77.25
75372;HTU21D;63956;52.006;5.878;2023-05-10T11:00:32;15.25;77.18
75372;HTU21D;63956;52.006;5.878;2023-05-10T11:03:04;15.26;77.11
75372;HTU21D;63956;52.006;5.878;2023-05-10T11:05:39;15.24;77.24
75372;HTU21D;63956;52.006;5.878;2023-05-10T11:08:10;15.28;77.21
75372;HTU21D;63956;52.006;5.878;2023-05-10T11:10:48;15.26;77.11
75372;HTU21D;63956;52.006;5.878;2023-05-10T11:13:27;15.30;77.21
75372;HTU21D;63956;52.006;5.878;2023-05-10T11:16:09;15.33;77.11
75372;HTU21D;63956;52.006;5.878;2023-05-10T11:18:38;15.36;77.15
75372;HTU21D;63956;52.006;5.878;2023-05-10T11:21:09;15.39;77.14
75372;HTU21D;63956;52.006;5.878;2023-05-10T11:23:49;15.42;77.08
75372;HTU21D;63956;52.006;5.878;2023-05-10T11:26:22;15.41;76.95
75372;HTU21D;63956;52.006;5.878;2023-05-10T11:28:53;15.40;76.95
75372;HTU21D;63956;52.006;5.878;2023-05-10T11:31:28;15.40;76.73
75372;HTU21D;63956;52.006;5.878;2023-05-10T11:33:58;15.41;76.71
75372;HTU21D;63956;52.006;5.878;2023-05-10T11:36:29;15.40;76.93
75372;HTU21D;63956;52.006;5.878;2023-05-10T11:38:58;15.43;76.85
75372;HTU21D;63956;52.006;5.878;2023-05-10T11:41:29;15.43;76.75
75372;HTU21D;63956;52.006;5.878;2023-05-10T11:43:58;15.46;76.89
75372;HTU21D;63956;52.006;5.878;2023-05-10T11:46:30;15.51;76.82
75372;HTU21D;63956;52.006;5.878;2023-05-10T11:49:00;15.54;76.55
75372;HTU21D;63956;52.006;5.878;2023-05-10T11:51:33;15.57;76.57
75372;HTU21D;63956;52.006;5.878;2023-05-10T11:54:06;15.59;76.33
75372;HTU21D;63956;52.006;5.878;2023-05-10T11:56:36;15.58;76.36
75372;HTU21D;63956;52.006;5.878;2023-05-10T11:59:06;15.59;76.50
75372;HTU21D;63956;52.006;5.878;2023-05-10T12:01:38;15.60;76.18
75372;HTU21D;63956;52.006;5.878;2023-05-10T12:04:07;15.59;76.34
75372;HTU21D;63956;52.006;5.878;2023-05-10T12:06:40;15.58;76.51
75372;HTU21D;63956;52.006;5.878;2023-05-10T12:09:10;15.60;76.60
75372;HTU21D;63956;52.006;5.878;2023-05-10T12:11:40;15.62;76.68
75372;HTU21D;63956;52.006;5.878;2023-05-10T12:14:09;15.68;76.31
75372;HTU21D;63956;52.006;5.878;2023-05-10T12:16:43;15.74;76.33
75372;HTU21D;63956;52.006;5.878;2023-05-10T12:19:12;15.81;76.34
75372;HTU21D;63956;52.006;5.878;2023-05-10T12:21:41;15.84;76.50
75372;HTU21D;63956;52.006;5.878;2023-05-10T12:24:10;15.88;76.30
75372;HTU21D;63956;52.006;5.878;2023-05-10T12:26:40;15.96;76.35
75372;HTU21D;63956;52.006;5.878;2023-05-10T12:29:13;16.01;76.19
75372;HTU21D;63956;52.006;5.878;2023-05-10T12:31:52;16.04;76.19
75372;HTU21D;63956;52.006;5.878;2023-05-10T12:34:23;16.05;76.31
75372;HTU21D;63956;52.006;5.878;2023-05-10T12:36:53;16.06;76.29
75372;HTU21D;63956;52.006;5.878;2023-05-10T12:39:23;16.05;76.05
75372;HTU21D;63956;52.006;5.878;2023-05-10T12:41:52;16.07;75.97
75372;HTU21D;63956;52.006;5.878;2023-05-10T12:44:21;16.07;76.22
75372;HTU21D;63956;52.006;5.878;2023-05-10T12:46:53;16.12;76.19
75372;HTU21D;63956;52.006;5.878;2023-05-10T12:49:23;16.14;76.26
75372;HTU21D;63956;52.006;5.878;2023-05-10T12:51:52;16.18;76.31
75372;HTU21D;63956;52.006;5.878;2023-05-10T12:54:21;16.24;75.89
75372;HTU21D;63956;52.006;5.878;2023-05-10T12:56:50;16.27;75.96
75372;HTU21D;63956;52.006;5.878;2023-05-10T12:59:19;16.33;76.12
75372;HTU21D;63956;52.006;5.878;2023-05-10T13:01:48;16.41;75.71
75372;HTU21D;63956;52.006;5.878;2023-05-10T13:04:20;16.47;75.41
75372;HTU21D;63956;52.006;5.878;2023-05-10T13:06:49;16.51;75.48
75372;HTU21D;63956;52.006;5.878;2023-05-10T13:09:18;16.59;75.40
75372;HTU21D;63956;52.006;5.878;2023-05-10T13:11:48;16.65;75.04
75372;HTU21D;63956;52.006;5.878;2023-05-10T13:14:19;16.66;75.25
75372;HTU21D;63956;52.006;5.878;2023-05-10T13:16:49;16.70;75.07
75372;HTU21D;63956;52.006;5.878;2023-05-10T13:19:20;16.67;74.98
75372;HTU21D;63956;52.006;5.878;2023-05-10T13:21:49;16.67;74.85
75372;HTU21D;63956;52.006;5.878;2023-05-10T13:24:19;16.63;75.18
75372;HTU21D;63956;52.006;5.878;2023-05-10T13:26:48;16.63;75.15
75372;HTU21D;63956;52.006;5.878;2023-05-10T13:29:17;16.63;74.70
75372;HTU21D;63956;52.006;5.878;2023-05-10T13:31:48;16.60;74.79
75372;HTU21D;63956;52.006;5.878;2023-05-10T13:34:20;16.59;75.09
75372;HTU21D;63956;52.006;5.878;2023-05-10T13:36:50;16.60;75.13
75372;HTU21D;63956;52.006;5.878;2023-05-10T13:39:20;16.56;75.13
75372;HTU21D;63956;52.006;5.878;2023-05-10T13:41:49;16.55;75.09
75372;HTU21D;63956;52.006;5.878;2023-05-10T13:44:20;16.55;75.15
75372;HTU21D;63956;52.006;5.878;2023-05-10T13:46:49;16.54;75.22
75372;HTU21D;63956;52.006;5.878;2023-05-10T13:49:21;16.55;75.38
75372;HTU21D;63956;52.006;5.878;2023-05-10T13:51:50;16.54;75.38
75372;HTU21D;63956;52.006;5.878;2023-05-10T13:54:19;16.52;75.35
75372;HTU21D;63956;52.006;5.878;2023-05-10T13:56:48;16.48;75.31
75372;HTU21D;63956;52.006;5.878;2023-05-10T13:59:17;16.45;75.23
75372;HTU21D;63956;52.006;5.878;2023-05-10T14:01:47;16.41;75.09
75372;HTU21D;63956;52.006;5.878;2023-05-10T14:04:16;16.37;75.12
75372;HTU21D;63956;52.006;5.878;2023-05-10T14:06:48;16.36;75.11
75372;HTU21D;63956;52.006;5.878;2023-05-10T14:09:19;16.34;75.15
75372;HTU21D;63956;52.006;5.878;2023-05-10T14:11:48;16.32;74.86
75372;HTU21D;63956;52.006;5.878;2023-05-10T14:14:17;16.29;74.86
75372;HTU21D;63956;52.006;5.878;2023-05-10T14:16:47;16.27;74.91
75372;HTU21D;63956;52.006;5.878;2023-05-10T14:19:16;16.21;75.07
75372;HTU21D;63956;52.006;5.878;2023-05-10T14:21:47;16.15;75.15
75372;HTU21D;63956;52.006;5.878;2023-05-10T14:24:18;16.15;75.20
75372;HTU21D;63956;52.006;5.878;2023-05-10T14:26:47;16.13;75.31
75372;HTU21D;63956;52.006;5.878;2023-05-10T14:29:19;16.14;75.26
75372;HTU21D;63956;52.006;5.878;2023-05-10T14:31:49;16.11;75.38
75372;HTU21D;63956;52.006;5.878;2023-05-10T14:34:18;16.07;75.48
75372;HTU21D;63956;52.006;5.878;2023-05-10T14:36:50;16.08;75.46
75372;HTU21D;63956;52.006;5.878;2023-05-10T14:39:19;16.07;75.51
75372;HTU21D;63956;52.006;5.878;2023-05-10T14:41:48;16.05;75.55
75372;HTU21D;63956;52.006;5.878;2023-05-10T14:44:18;16.02;75.52
75372;HTU21D;63956;52.006;5.878;2023-05-10T14:46:47;15.98;75.60
75372;HTU21D;63956;52.006;5.878;2023-05-10T14:49:16;15.96;75.61
75372;HTU21D;63956;52.006;5.878;2023-05-10T14:51:51;15.89;75.71
75372;HTU21D;63956;52.006;5.878;2023-05-10T14:54:20;15.89;75.74
75372;HTU21D;63956;52.006;5.878;2023-05-10T14:56:49;15.88;75.72
75372;HTU21D;63956;52.006;5.878;2023-05-10T14:59:19;15.88;75.75
75372;HTU21D;63956;52.006;5.878;2023-05-10T15:01:49;15.89;75.78
75372;HTU21D;63956;52.006;5.878;2023-05-10T15:04:18;15.90;75.90
75372;HTU21D;63956;52.006;5.878;2023-05-10T15:06:47;15.91;75.86
75372;HTU21D;63956;52.006;5.878;2023-05-10T15:09:19;15.92;75.83
75372;HTU21D;63956;52.006;5.878;2023-05-10T15:11:48;15.90;75.79
75372;HTU21D;63956;52.006;5.878;2023-05-10T15:14:17;15.88;75.79
75372;HTU21D;63956;52.006;5.878;2023-05-10T15:16:46;15.87;75.86
75372;HTU21D;63956;52.006;5.878;2023-05-10T15:19:15;15.87;75.88
75372;HTU21D;63956;52.006;5.878;2023-05-10T15:21:45;15.87;75.94
75372;HTU21D;63956;52.006;5.878;2023-05-10T15:24:14;15.90;75.97
75372;HTU21D;63956;52.006;5.878;2023-05-10T15:26:45;15.92;76.04
75372;HTU21D;63956;52.006;5.878;2023-05-10T15:29:15;15.96;75.84
75372;HTU21D;63956;52.006;5.878;2023-05-10T15:31:46;15.96;75.77
75372;HTU21D;63956;52.006;5.878;2023-05-10T15:34:16;15.97;75.75
75372;HTU21D;63956;52.006;5.878;2023-05-10T15:36:45;15.98;75.67
75372;HTU21D;63956;52.006;5.878;2023-05-10T15:39:14;15.96;75.77
75372;HTU21D;63956;52.006;5.878;2023-05-10T15:41:46;15.98;75.68
75372;HTU21D;63956;52.006;5.878;2023-05-10T15:44:15;15.97;75.63